sensor_id;sensor_type;location;lat;lon;timestamp;pressure;altitude;pressure_sealevel;temperature;humidity
75998;BME280;64685;48.762;44.822;2023-12-29T06:11:04;101583.06;;;2.92;100.00
75998;BME280;64685;48.762;44.822;2023-12-29T06:17:25;101584.75;;;3.10;100.00
75998;BME280;64685;48.762;44.822;2023-12-29T06:22:29;101565.94;;;3.07;100.00
75998;BME280;64685;48.762;44.822;2023-12-29T06:27:33;101574.78;;;3.47;100.00
75998;BME280;64685;48.762;44.822;2023-12-29T06:32:41;101583.19;;;3.57;100.00
75998;BME280;64685;48.762;44.822;2023-12-29T06:37:46;101575.38;;;3.70;100.00
75998;BME280;64685;48.762;44.822;2023-12-29T06:42:50;101576.84;;;3.56;100.00
75998;BME280;64685;48.762;44.822;2023-12-29T06:47:54;101554.50;;;3.58;100.00
75998;BME280;64685;48.762;44.822;2023-12-29T06:52:59;101556.22;;;3.64;100.00
75998;BME280;64685;48.762;44.822;2023-12-29T06:58:04;101548.84;;;3.48;100.00
75998;BME280;64685;48.762;44.822;2023-12-29T07:03:08;101576.25;;;3.54;100.00
75998;BME280;64685;48.762;44.822;2023-12-29T07:08:13;101573.69;;;3.48;100.00
75998;BME280;64685;48.762;44.822;2023-12-29T07:13:20;101569.25;;;3.47;100.00
75998;BME280;64685;48.762;44.822;2023-12-29T07:18:24;101566.75;;;3.45;100.00
75998;BME280;64685;48.762;44.822;2023-12-29T07:23:30;101586.91;;;3.46;100.00
75998;BME280;64685;48.762;44.822;2023-12-29T07:28:34;101569.00;;;3.48;100.00
75998;BME280;64685;48.762;44.822;2023-12-29T07:33:38;101579.41;;;3.63;100.00
75998;BME280;64685;48.762;44.822;2023-12-29T07:38:42;101563.69;;;3.63;100.00
75998;BME280;64685;48.762;44.822;2023-12-29T07:43:47;101542.16;;;3.65;100.00
75998;BME280;64685;48.762;44.822;2023-12-29T07:49:02;101542.41;;;3.64;100.00
75998;BME280;64685;48.762;44.822;2023-12-29T07:54:08;101513.97;;;3.63;100.00
75998;BME280;64685;48.762;44.822;2023-12-29T07:59:12;101494.47;;;3.48;100.00
75998;BME280;64685;48.762;44.822;2023-12-29T08:04:16;101492.53;;;3.49;100.00
75998;BME280;64685;48.762;44.822;2023-12-29T08:09:24;101472.94;;;3.50;100.00
75998;BME280;64685;48.762;44.822;2023-12-29T08:14:29;101444.56;;;3.33;100.00
75998;BME280;64685;48.762;44.822;2023-12-29T08:19:33;101463.84;;;3.50;100.00
75998;BME280;64685;48.762;44.822;2023-12-29T08:24:40;101435.91;;;3.46;100.00
75998;BME280;64685;48.762;44.822;2023-12-29T08:29:47;101437.41;;;3.59;100.00
75998;BME280;64685;48.762;44.822;2023-12-29T08:34:51;101443.09;;;3.47;100.00
75998;BME280;64685;48.762;44.822;2023-12-29T08:39:58;101421.88;;;3.74;100.00
75998;BME280;64685;48.762;44.822;2023-12-29T08:45:05;101395.25;;;3.68;100.00
75998;BME280;64685;48.762;44.822;2023-12-29T08:50:11;101377.50;;;3.59;100.00
75998;BME280;64685;48.762;44.822;2023-12-29T08:55:15;101367.69;;;3.73;100.00
75998;BME280;64685;48.762;44.822;2023-12-29T09:00:19;101368.28;;;3.75;100.00
75998;BME280;64685;48.762;44.822;2023-12-29T09:05:23;101357.22;;;3.75;100.00
75998;BME280;64685;48.762;44.822;2023-12-29T09:10:27;101326.03;;;3.80;100.00
75998;BME280;64685;48.762;44.822;2023-12-29T09:15:32;101309.34;;;3.65;100.00
75998;BME280;64685;48.762;44.822;2023-12-29T09:20:36;101336.59;;;3.88;100.00
75998;BME280;64685;48.762;44.822;2023-12-29T09:25:40;101333.06;;;3.92;100.00
75998;BME280;64685;48.762;44.822;2023-12-29T09:30:44;101324.28;;;4.00;100.00
75998;BME280;64685;48.762;44.822;2023-12-29T09:35:48;101317.69;;;4.06;100.00
75998;BME280;64685;48.762;44.822;2023-12-29T09:40:52;101274.25;;;3.97;100.00
75998;BME280;64685;48.762;44.822;2023-12-29T09:45:58;101266.84;;;4.07;100.00
75998;BME280;64685;48.762;44.822;2023-12-29T09:51:07;101257.28;;;4.25;100.00
75998;BME280;64685;48.762;44.822;2023-12-29T09:56:13;101225.19;;;4.19;100.00
75998;BME280;64685;48.762;44.822;2023-12-29T10:01:18;101198.16;;;4.36;100.00
75998;BME280;64685;48.762;44.822;2023-12-29T10:06:25;101212.09;;;4.66;100.00
75998;BME280;64685;48.762;44.822;2023-12-29T10:11:30;101178.88;;;4.51;100.00
75998;BME280;64685;48.762;44.822;2023-12-29T10:16:42;101194.41;;;4.72;100.00
75998;BME280;64685;48.762;44.822;2023-12-29T10:21:54;101174.47;;;4.65;100.00
75998;BME280;64685;48.762;44.822;2023-12-29T10:27:00;101170.41;;;4.92;100.00
75998;BME280;64685;48.762;44.822;2023-12-29T10:32:04;101179.25;;;5.04;100.00
75998;BME280;64685;48.762;44.822;2023-12-29T10:37:08;101159.31;;;4.97;100.00
75998;BME280;64685;48.762;44.822;2023-12-29T10:42:17;101172.31;;;5.17;100.00
75998;BME280;64685;48.762;44.822;2023-12-29T10:47:24;101156.28;;;5.09;100.00
75998;BME280;64685;48.762;44.822;2023-12-29T10:52:28;101124.44;;;5.06;100.00
75998;BME280;64685;48.762;44.822;2023-12-29T10:57:32;101152.41;;;5.15;100.00
75998;BME280;64685;48.762;44.822;2023-12-29T11:02:36;101142.44;;;5.29;100.00
75998;BME280;64685;48.762;44.822;2023-12-29T11:07:42;101149.91;;;5.43;100.00
75998;BME280;64685;48.762;44.822;2023-12-29T11:12:47;101140.75;;;5.33;100.00
75998;BME280;64685;48.762;44.822;2023-12-29T11:17:56;101119.72;;;5.52;100.00
75998;BME280;64685;48.762;44.822;2023-12-29T11:23:00;101143.22;;;5.59;100.00
75998;BME280;64685;48.762;44.822;2023-12-29T11:28:08;101132.97;;;5.55;100.00
75998;BME280;64685;48.762;44.822;2023-12-29T11:33:39;101129.91;;;5.66;100.00
75998;BME280;64685;48.762;44.822;2023-12-29T11:44:27;101114.09;;;5.72;100.00
75998;BME280;64685;48.762;44.822;2023-12-29T11:49:58;101109.94;;;5.79;100.00
75998;BME280;64685;48.762;44.822;2023-12-29T11:55:11;101109.94;;;5.69;100.00
75998;BME280;64685;48.762;44.822;2023-12-29T12:00:15;101106.13;;;5.60;100.00
75998;BME280;64685;48.762;44.822;2023-12-29T12:05:48;101141.53;;;5.83;100.00
75998;BME280;64685;48.762;44.822;2023-12-29T12:10:52;101130.19;;;5.75;100.00
75998;BME280;64685;48.762;44.822;2023-12-29T12:15:56;101134.88;;;5.94;100.00
75998;BME280;64685;48.762;44.822;2023-12-29T12:21:00;101132.66;;;5.86;100.00
75998;BME280;64685;48.762;44.822;2023-12-29T12:26:05;101145.09;;;5.94;100.00
75998;BME280;64685;48.762;44.822;2023-12-29T12:31:12;101121.00;;;5.94;100.00
75998;BME280;64685;48.762;44.822;2023-12-29T12:36:17;101122.13;;;5.88;100.00
75998;BME280;64685;48.762;44.822;2023-12-29T12:41:25;101139.56;;;5.94;100.00
75998;BME280;64685;48.762;44.822;2023-12-29T12:46:33;101117.72;;;5.67;100.00
75998;BME280;64685;48.762;44.822;2023-12-29T12:51:39;101097.81;;;5.60;100.00
75998;BME280;64685;48.762;44.822;2023-12-29T12:56:46;101121.00;;;5.79;100.00
75998;BME280;64685;48.762;44.822;2023-12-29T13:01:50;101130.16;;;5.85;100.00
75998;BME280;64685;48.762;44.822;2023-12-29T13:06:54;101115.22;;;5.76;100.00
